Data for 12/06/2017

Time Sea-Level Adjusted Pressure Absolute Pressure Temperature Relative Humidity Dew Point   
(mb) (inHg) (mb) (inHg) (C) (F) (%) (C) (F)
00:05 1033 30.5 862 25.45 -7.1 19.1 77 -10.6 13
00:10 1033 30.5 862 25.45 -6.6 20.1 74 -10.6 12.9
00:15 1033 30.5 862 25.45 -6.4 20.5 72 -10.6 13
00:20 1033 30.5 862 25.45 -6.5 20.3 72 -10.7 12.7
00:25 1033 30.5 862 25.45 -6.9 19.6 74 -10.7 12.7
00:30 1033 30.5 862 25.45 -7.7 18.2 80 -10.6 13
00:35 1033 30.5 862 25.45 -8.1 17.5 80 -10.9 12.5
00:40 1033 30.5 862 25.45 -8.3 17.1 81 -11 12.2
00:45 1033 30.5 862 25.45 -8.5 16.8 82 -11.1 12.1
00:50 1033 30.5 862 25.45 -8.6 16.4 82 -11.2 11.8
00:55 1033 30.5 862 25.45 -8.9 16 83 -11.3 11.7
01:00 1033 30.5 862 25.45 -8.9 15.9 83 -11.2 11.8
01:05 1033 30.5 862 25.45 -8.9 16.1 85 -11 12.2
01:10 1033 30.5 862 25.45 -8.4 16.9 83 -10.7 12.7
01:15 1033 30.5 862 25.45 -8 17.6 81 -10.7 12.7
01:20 1033 30.5 862 25.45 -7.7 18.2 79 -10.7 12.7
01:25 1033 30.5 862 25.45 -7.7 18.2 79 -10.8 12.6
01:30 1033 30.5 862 25.45 -8 17.7 80 -10.8 12.5
01:35 1033 30.5 862 25.45 -8.2 17.3 80 -11 12.2
01:40 1033 30.5 862 25.45 -8.3 17.1 81 -11 12.2
01:45 1033 30.5 862 25.45 -8.5 16.7 81 -11.3 11.7
01:50 1033 30.5 862 25.45 -8.7 16.3 83 -11.2 11.9
01:55 1033 30.5 862 25.45 -8.4 16.8 80 -11.3 11.7
02:00 1033 30.5 862 25.45 -8.5 16.6 83 -11 12.2
02:05 1033 30.5 862 25.45 -9 15.9 80 -11.8 10.8
02:10 1033 30.5 862 25.45 -9.5 14.8 86 -11.5 11.3
02:15 1033 30.5 863 25.48 -8.9 16 83 -11.2 11.8
02:20 1033 30.5 863 25.48 -8.7 16.3 83 -11.1 11.9
02:25 1033 30.5 863 25.48 -8.5 16.7 82 -11.1 12
02:30 1033 30.5 863 25.48 -8.5 16.8 81 -11.2 11.9
02:35 1034 30.53 863 25.48 -8.5 16.7 81 -11.1 11.9
02:40 1034 30.53 863 25.48 -8.5 16.8 83 -10.9 12.4
02:45 1034 30.53 863 25.48 -8.5 16.7 81 -11.2 11.8
02:50 1034 30.53 863 25.48 -8.5 16.6 83 -10.9 12.4
02:55 1034 30.53 863 25.48 -8.3 17.1 81 -10.9 12.4
03:00 1034 30.53 863 25.48 -8 17.5 81 -10.7 12.8
03:05 1034 30.53 863 25.48 -7.9 17.8 81 -10.7 12.7
03:10 1034 30.53 863 25.48 -7.8 18 80 -10.6 12.9
03:15 1034 30.53 863 25.48 -7.7 18.2 80 -10.5 13.1
03:20 1034 30.53 863 25.48 -7.7 18.1 81 -10.5 13.1
03:25 1034 30.53 863 25.48 -7.9 17.7 80 -10.8 12.6
03:30 1034 30.53 863 25.48 -8.4 16.8 81 -11.1 12.1
03:35 1034 30.53 863 25.48 -8.9 16 84 -11.2 11.9
03:40 1034 30.53 863 25.48 -8.9 16 83 -11.2 11.8
03:45 1034 30.53 863 25.48 -8.5 16.7 83 -10.8 12.5
03:50 1034 30.53 863 25.48 -7.8 17.9 82 -10.5 13.2
03:55 1034 30.53 863 25.48 -8 17.7 78 -11.1 12
04:00 1034 30.53 863 25.48 -8.3 17.1 77 -11.7 11
04:05 1034 30.53 863 25.48 -8 17.5 79 -11 12.1
04:10 1034 30.53 863 25.48 -8.1 17.4 77 -11.4 11.5
04:15 1034 30.53 863 25.48 -8.3 17.1 79 -11.3 11.6
04:20 1034 30.53 863 25.48 -8.1 17.3 78 -11.3 11.6
04:25 1034 30.53 863 25.48 -8 17.6 78 -11.3 11.7
04:30 1034 30.53 863 25.48 -8.1 17.5 78 -11.3 11.6
04:35 1034 30.53 863 25.48 -7.9 17.9 78 -11.1 12.1
04:40 1034 30.53 863 25.48 -7.7 18.1 76 -11.2 11.8
04:45 1034 30.53 863 25.48 -7.8 17.9 75 -11.5 11.4
04:50 1034 30.53 863 25.48 -8 17.7 75 -11.7 10.9
04:55 1034 30.53 863 25.48 -8.3 17 74 -12.2 10
05:00 1034 30.53 864 25.51 -9.1 15.6 76 -12.6 9.3
05:05 1034 30.53 864 25.51 -9.7 14.5 81 -12.4 9.7
05:10 1034 30.53 864 25.51 -10.1 13.7 82 -12.6 9.3
05:15 1034 30.53 864 25.51 -10.2 13.6 84 -12.5 9.5
05:20 1034 30.53 864 25.51 -10 14 84 -12.2 10
05:25 1034 30.53 864 25.51 -9.5 15 80 -12.4 9.8
05:30 1035 30.56 864 25.51 -9.5 14.8 80 -12.4 9.7
05:35 1035 30.56 864 25.51 -9.6 14.7 79 -12.6 9.4
05:40 1035 30.56 864 25.51 -9.9 14.3 80 -12.7 9.1
05:45 1035 30.56 864 25.51 -9.9 14.2 79 -12.9 8.9
05:50 1035 30.56 864 25.51 -10 14.1 80 -12.8 9
05:55 1035 30.56 864 25.51 -10.1 13.9 79 -13.1 8.4
06:00 1035 30.56 864 25.51 -10.5 13.1 80 -13.3 8
06:05 1035 30.56 864 25.51 -10.7 12.7 81 -13.4 7.9
06:10 1035 30.56 864 25.51 -10.8 12.6 82 -13.3 8
06:15 1035 30.56 864 25.51 -10.5 13.1 81 -13.2 8.3
06:20 1035 30.56 864 25.51 -10.3 13.5 80 -13.1 8.4
06:25 1035 30.56 864 25.51 -9.9 14.1 78 -13 8.6
06:30 1035 30.56 864 25.51 -9.9 14.1 79 -12.9 8.8
06:35 1035 30.56 864 25.51 -9.7 14.5 78 -12.8 8.9
06:40 1035 30.56 864 25.51 -9.8 14.5 81 -12.5 9.5
06:45 1035 30.56 864 25.51 -9.4 15 79 -12.4 9.7
06:50 1035 30.56 864 25.51 -8.9 16 76 -12.4 9.7
06:55 1035 30.56 864 25.51 -9.1 15.7 78 -12.1 10.1
07:00 1035 30.56 864 25.51 -9.3 15.2 78 -12.5 9.6
07:05 1035 30.56 864 25.51 -9.2 15.4 77 -12.5 9.6
07:10 1035 30.56 865 25.54 -9.3 15.2 81 -12.1 10.2
07:15 1036 30.59 865 25.54 -9.7 14.5 81 -12.4 9.7
07:20 1036 30.59 865 25.54 -9.2 15.4 79 -12.3 9.9
07:25 1036 30.59 865 25.54 -8.9 16 79 -11.9 10.6
07:30 1036 30.59 865 25.54 -8.9 16.1 78 -12 10.4
07:35 1036 30.59 865 25.54 -8.7 16.4 78 -11.9 10.6
07:40 1036 30.59 865 25.54 -8.5 16.7 77 -11.8 10.8
07:45 1036 30.59 865 25.54 -8.3 17.1 76 -11.8 10.8
07:50 1036 30.59 865 25.54 -8.3 17.1 74 -12.1 10.2
07:55 1036 30.59 865 25.54 -8.7 16.4 76 -12.2 10
08:00 1036 30.59 865 25.54 -8.9 15.9 76 -12.4 9.6
08:05 1036 30.59 865 25.54 -9.5 15 78 -12.6 9.3
08:10 1036 30.59 865 25.54 -10 14.1 82 -12.4 9.6
08:15 1036 30.59 865 25.54 -10 13.9 83 -12.4 9.8
08:20 1036 30.59 865 25.54 -9.6 14.7 82 -12.1 10.2
08:25 1036 30.59 865 25.54 -9.3 15.2 84 -11.6 11.1
08:30 1036 30.59 865 25.54 -9.4 15.1 83 -11.8 10.7
08:35 1036 30.59 865 25.54 -9.6 14.8 81 -12.2 10
08:40 1036 30.59 865 25.54 -9 15.9 79 -12 10.4
08:45 1036 30.59 865 25.54 -8.2 17.3 76 -11.8 10.8
08:50 1036 30.59 865 25.54 -7.8 18 76 -11.3 11.6
08:55 1036 30.59 865 25.54 -7.4 18.6 73 -11.5 11.3
09:00 1036 30.59 866 25.57 -6.8 19.8 68 -11.8 10.7
09:05 1036 30.59 866 25.57 -6.6 20.1 68 -11.5 11.2
09:10 1036 30.59 866 25.57 -7.2 19.1 69 -11.9 10.6
09:15 1036 30.59 866 25.57 -7.3 18.8 72 -11.6 11.1
09:20 1036 30.59 866 25.57 -7.1 19.3 71 -11.6 11.2
09:25 1036 30.59 866 25.57 -6.2 20.8 66 -11.6 11.1
09:30 1036 30.59 865 25.54 -5.3 22.5 63 -11.3 11.6
09:35 1036 30.59 865 25.54 -5.3 22.5 63 -11.3 11.7
09:40 1036 30.59 866 25.57 -6.2 20.8 67 -11.5 11.4
09:45 1036 30.59 866 25.57 -7 19.3 70 -11.6 11
09:50 1036 30.59 866 25.57 -6.7 19.9 69 -11.6 11.2
09:55 1036 30.59 866 25.57 -6.2 20.8 67 -11.3 11.6
10:00 1037 30.62 866 25.57 -5.6 21.9 66 -11.1 12.1
10:05 1037 30.62 866 25.57 -4.8 23.4 64 -10.7 12.8
10:10 1037 30.62 866 25.57 -4.2 24.5 60 -10.7 12.7
10:15 1037 30.62 866 25.57 -4.3 24.3 62 -10.6 13
10:20 1037 30.62 866 25.57 -3.9 24.9 61 -10.4 13.2
10:25 1037 30.62 866 25.57 -4.2 24.4 60 -10.8 12.6
10:30 1037 30.62 866 25.57 -4.1 24.6 62 -10.4 13.3
10:35 1037 30.62 866 25.57 -4.3 24.3 64 -10.2 13.7
10:40 1037 30.62 866 25.57 -4.1 24.6 61 -10.5 13.1
10:45 1037 30.62 866 25.57 -3 26.7 57 -10.3 13.4
10:50 1037 30.62 866 25.57 -2.9 26.7 58 -10.2 13.7
10:55 1037 30.62 866 25.57 -3.5 25.7 59 -10.5 13.2
11:00 1037 30.62 866 25.57 -3 26.6 58 -10.2 13.7
11:05 1037 30.62 866 25.57 -2.8 26.9 57 -10.1 13.8
11:10 1037 30.62 866 25.57 -2.8 27 57 -10.1 13.8
11:15 1037 30.62 866 25.57 -3.3 26.1 61 -9.8 14.4
11:20 1037 30.62 866 25.57 -3.8 25.2 61 -10.2 13.6
11:25 1037 30.62 866 25.57 -3.8 25.2 61 -10.2 13.6
11:30 1037 30.62 866 25.57 -3.7 25.3 60 -10.4 13.3
11:35 1037 30.62 866 25.57 -3.3 26.1 58 -10.4 13.3
11:40 1037 30.62 866 25.57 -3 26.6 57 -10.5 13.1
11:45 1037 30.62 866 25.57 -3.1 26.4 58 -10.2 13.7
11:50 1037 30.62 866 25.57 -3.7 25.3 60 -10.4 13.3
11:55 1037 30.62 866 25.57 -3.9 25 62 -10.2 13.6
12:00 1037 30.62 866 25.57 -3.5 25.7 59 -10.5 13.1
12:05 1037 30.62 866 25.57 -3.3 26.1 59 -10.2 13.7
12:10 1037 30.62 866 25.57 -3.3 26 58 -10.5 13.2
12:15 1037 30.62 866 25.57 -3.5 25.6 61 -10.1 13.8
12:20 1037 30.62 866 25.57 -3.5 25.7 60 -10.2 13.6
12:25 1037 30.62 866 25.57 -3.5 25.7 61 -10 14
12:30 1037 30.62 866 25.57 -3.6 25.4 62 -10 14
12:35 1037 30.62 866 25.57 -4.2 24.4 65 -9.8 14.4
12:40 1036 30.59 866 25.57 -5 23 68 -10 14
12:45 1036 30.59 866 25.57 -4.4 24.1 65 -10.1 13.9
12:50 1036 30.59 866 25.57 -4.1 24.6 64 -10 14.1
12:55 1036 30.59 866 25.57 -4 24.7 64 -9.9 14.2
13:00 1036 30.59 866 25.57 -3.7 25.3 61 -10.3 13.5
13:05 1036 30.59 866 25.57 -3.6 25.6 61 -10 14.1
13:10 1036 30.59 866 25.57 -3.8 25.2 63 -9.9 14.1
13:15 1036 30.59 866 25.57 -4.1 24.6 62 -10.4 13.2
13:20 1036 30.59 866 25.57 -3.3 26.1 58 -10.4 13.4
13:25 1036 30.59 865 25.54 -2.6 27.3 56 -10.2 13.6
13:30 1036 30.59 865 25.54 -2.4 27.6 55 -10.2 13.7
13:35 1036 30.59 865 25.54 -2.9 26.8 58 -10.1 13.9
13:40 1036 30.59 865 25.54 -2.9 26.7 56 -10.5 13.2
13:45 1036 30.59 865 25.54 -2.8 27 55 -10.7 12.8
13:50 1036 30.59 865 25.54 -2.7 27.1 57 -10.2 13.7
13:55 1036 30.59 865 25.54 -2.9 26.9 57 -10.3 13.5
14:00 1036 30.59 865 25.54 -2.9 26.7 56 -10.4 13.3
14:05 1036 30.59 865 25.54 -2.8 26.9 55 -10.7 12.8
14:10 1036 30.59 865 25.54 -2.7 27.2 52 -11.2 11.9
14:15 1036 30.59 865 25.54 -2.7 27.1 54 -10.9 12.4
14:20 1036 30.59 865 25.54 -2.1 28.2 50 -11.2 11.9
14:25 1036 30.59 865 25.54 -2.1 28.2 52 -10.6 12.9
14:30 1036 30.59 865 25.54 -2.2 28.1 53 -10.6 12.9
14:35 1036 30.59 865 25.54 -2.4 27.7 53 -10.7 12.7
14:40 1036 30.59 865 25.54 -2.6 27.3 54 -10.6 13
14:45 1036 30.59 865 25.54 -2.7 27.1 53 -11.1 12
14:50 1036 30.59 865 25.54 -2.9 26.9 52 -11.3 11.6
14:55 1036 30.59 865 25.54 -3.1 26.4 55 -10.9 12.3
15:00 1036 30.59 865 25.54 -3.2 26.3 54 -11.1 12
15:05 1035 30.56 865 25.54 -3.1 26.5 55 -10.8 12.6
15:10 1036 30.59 865 25.54 -2.9 26.8 54 -10.9 12.4
15:15 1036 30.59 865 25.54 -3 26.6 57 -10.5 13.1
15:20 1035 30.56 865 25.54 -2.9 26.7 55 -10.7 12.8
15:25 1036 30.59 865 25.54 -3 26.5 58 -10.1 13.8
15:30 1036 30.59 865 25.54 -3.1 26.4 58 -10.4 13.4
15:35 1036 30.59 865 25.54 -3 26.6 58 -10.1 13.8
15:40 1036 30.59 865 25.54 -2.9 26.8 58 -10 14
15:45 1036 30.59 865 25.54 -2.9 26.7 58 -10.1 13.8
15:50 1035 30.56 865 25.54 -2.9 26.7 58 -10 13.9
15:55 1035 30.56 865 25.54 -3 26.6 60 -9.6 14.6
16:00 1035 30.56 865 25.54 -3.3 26 60 -10.1 13.9
16:05 1035 30.56 865 25.54 -3.6 25.5 62 -9.9 14.3
16:10 1035 30.56 865 25.54 -3.8 25.1 64 -9.6 14.6
16:15 1035 30.56 865 25.54 -4.2 24.4 65 -9.8 14.3
16:20 1035 30.56 864 25.51 -4.4 24.1 67 -9.6 14.6
16:25 1035 30.56 865 25.54 -4.4 24.1 66 -9.7 14.5
16:30 1035 30.56 864 25.51 -4.2 24.4 65 -9.8 14.4
16:35 1035 30.56 864 25.51 -4.3 24.3 66 -9.7 14.6
16:40 1035 30.56 864 25.51 -4.2 24.5 64 -9.9 14.2
16:45 1035 30.56 864 25.51 -4.2 24.5 65 -9.7 14.5
16:50 1035 30.56 864 25.51 -4.6 23.7 67 -9.8 14.3
16:55 1035 30.56 864 25.51 -4.8 23.4 69 -9.7 14.6
17:00 1035 30.56 864 25.51 -4.9 23.2 69 -9.7 14.5
17:05 1035 30.56 864 25.51 -4.9 23.2 69 -9.8 14.4
17:10 1035 30.56 865 25.54 -4.8 23.3 69 -9.6 14.7
17:15 1035 30.56 865 25.54 -4.8 23.4 69 -9.7 14.5
17:20 1035 30.56 865 25.54 -4.8 23.3 69 -9.7 14.5
17:25 1035 30.56 864 25.51 -5 23.1 70 -9.6 14.8
17:30 1035 30.56 864 25.51 -5.1 22.9 72 -9.5 15
17:35 1035 30.56 864 25.51 -5.2 22.6 73 -9.3 15.3
17:40 1035 30.56 864 25.51 -5.3 22.5 73 -9.3 15.2
17:45 1035 30.56 864 25.51 -5.1 22.8 72 -9.3 15.2
17:50 1035 30.56 864 25.51 -4.9 23.2 67 -10.1 13.9
17:55 1035 30.56 864 25.51 -4.7 23.6 71 -9.1 15.5
18:00 1035 30.56 864 25.51 -5 23 71 -9.6 14.8
18:05 1035 30.56 864 25.51 -5.3 22.5 71 -9.7 14.5
18:10 1035 30.56 864 25.51 -5.3 22.4 71 -9.8 14.4
18:15 1035 30.56 864 25.51 -5.3 22.4 72 -9.6 14.8
18:20 1035 30.56 864 25.51 -5.3 22.4 71 -9.8 14.4
18:25 1035 30.56 864 25.51 -5.3 22.5 71 -9.7 14.6
18:30 1035 30.56 864 25.51 -5.2 22.7 72 -9.5 15
18:35 1035 30.56 864 25.51 -5.1 22.7 73 -9.2 15.4
18:40 1035 30.56 864 25.51 -5 23 70 -9.6 14.7
18:45 1035 30.56 864 25.51 -5 23 70 -9.7 14.5
18:50 1035 30.56 864 25.51 -5.1 22.9 69 -9.8 14.3
18:55 1035 30.56 864 25.51 -5.2 22.7 69 -10.1 13.9
19:00 1035 30.56 864 25.51 -5.1 22.9 70 -9.7 14.5
19:05 1035 30.56 864 25.51 -4.9 23.1 71 -9.4 15.1
19:10 1035 30.56 864 25.51 -4.6 23.7 71 -9.2 15.5
19:15 1035 30.56 864 25.51 -4.4 24.1 70 -9.1 15.5
19:20 1035 30.56 864 25.51 -4.4 24 71 -8.9 16
19:25 1035 30.56 864 25.51 -4.4 24.2 72 -8.7 16.3
19:30 1035 30.56 864 25.51 -4.4 24.1 72 -8.7 16.4
19:35 1035 30.56 864 25.51 -4.5 24 72 -8.8 16.2
19:40 1035 30.56 864 25.51 -4.5 24 73 -8.7 16.4
19:45 1035 30.56 864 25.51 -4.7 23.5 75 -8.5 16.8
19:50 1035 30.56 864 25.51 -4.9 23.2 76 -8.4 16.8
19:55 1035 30.56 864 25.51 -5 23 77 -8.4 16.8
20:00 1035 30.56 864 25.51 -5.2 22.7 78 -8.4 16.9
20:05 1035 30.56 864 25.51 -5 23.1 78 -8.3 17
20:10 1035 30.56 864 25.51 -4.9 23.2 77 -8.2 17.2
20:15 1035 30.56 864 25.51 -4.9 23.2 77 -8.3 17.1
20:20 1034 30.53 864 25.51 -5 23 78 -8.2 17.2
20:25 1035 30.56 864 25.51 -5 23 79 -8.2 17.3
20:30 1034 30.53 864 25.51 -5 23 80 -8 17.7
20:35 1034 30.53 864 25.51 -5 22.9 78 -8.3 17
20:40 1034 30.53 864 25.51 -5 23.1 77 -8.4 16.9
20:45 1034 30.53 864 25.51 -4.9 23.1 79 -8.1 17.4
20:50 1034 30.53 863 25.48 -4.9 23.1 80 -7.9 17.8
20:55 1034 30.53 863 25.48 -5 23.1 80 -7.8 17.9
21:00 1034 30.53 863 25.48 -5.1 22.8 80 -8 17.6
21:05 1034 30.53 863 25.48 -5.2 22.6 81 -8.1 17.5
21:10 1034 30.53 864 25.51 -5.3 22.5 79 -8.4 17
21:15 1034 30.53 864 25.51 -5.5 22.2 81 -8.3 17.1
21:20 1034 30.53 863 25.48 -5.5 22.1 82 -8.2 17.3
21:25 1034 30.53 864 25.51 -5.5 22.2 82 -8.1 17.5
21:30 1034 30.53 864 25.51 -5.4 22.3 82 -8 17.6
21:35 1034 30.53 864 25.51 -5.3 22.5 81 -8.1 17.4
21:40 1034 30.53 864 25.51 -5.3 22.5 80 -8.3 17.1
21:45 1034 30.53 863 25.48 -5.4 22.4 77 -8.7 16.3
21:50 1034 30.53 863 25.48 -5.5 22.1 79 -8.5 16.6
21:55 1034 30.53 863 25.48 -5.6 21.9 78 -8.8 16.1
22:00 1034 30.53 863 25.48 -5.7 21.8 77 -9 15.8
22:05 1034 30.53 863 25.48 -5.6 21.9 76 -9.2 15.5
22:10 1034 30.53 863 25.48 -5.5 22.2 75 -9.2 15.4
22:15 1034 30.53 863 25.48 -5.4 22.3 74 -9.3 15.2
22:20 1034 30.53 863 25.48 -5.2 22.6 72 -9.5 14.9
22:25 1034 30.53 863 25.48 -4.9 23.2 71 -9.4 15.2
22:30 1034 30.53 863 25.48 -4.7 23.5 73 -9 15.9
22:35 1034 30.53 863 25.48 -4.8 23.4 73 -8.9 16
22:40 1034 30.53 863 25.48 -4.8 23.3 75 -8.6 16.5
22:45 1034 30.53 863 25.48 -4.9 23.1 73 -9 15.9
22:50 1034 30.53 863 25.48 -4.9 23.2 74 -8.8 16.1
22:55 1034 30.53 863 25.48 -4.9 23.2 76 -8.6 16.6
23:00 1034 30.53 863 25.48 -4.9 23.2 76 -8.5 16.7
23:05 1034 30.53 863 25.48 -4.9 23.1 74 -8.8 16.1
23:10 1034 30.53 863 25.48 -4.9 23.1 76 -8.6 16.6
23:15 1034 30.53 863 25.48 -5 23 76 -8.5 16.7
23:20 1034 30.53 863 25.48 -4.9 23.2 76 -8.4 16.9
23:25 1034 30.53 863 25.48 -4.9 23.3 77 -8.3 17.1
23:30 1034 30.53 863 25.48 -4.9 23.2 77 -8.3 17.1
23:35 1034 30.53 863 25.48 -5 23 76 -8.5 16.6
23:40 1034 30.53 863 25.48 -5.1 22.8 77 -8.6 16.6
23:45 1034 30.53 863 25.48 -5 23 77 -8.4 16.8
23:50 1034 30.53 863 25.48 -5.2 22.7 77 -8.5 16.7
23:55 1034 30.53 863 25.48 -5.1 22.8 77 -8.6 16.6
24:00 1034 30.53 863 25.48 -4.8 23.4 76 -8.3 17